sensor_id;sensor_type;location;lat;lon;timestamp;P1;durP1;ratioP1;P2;durP2;ratioP2
4553;SDS011;2289;48.316;15.174;2022-12-18T00:00:22;6.07;;;3.30;;
4553;SDS011;2289;48.316;15.174;2022-12-18T00:02:50;6.07;;;2.90;;
4553;SDS011;2289;48.316;15.174;2022-12-18T00:05:20;5.20;;;3.77;;
4553;SDS011;2289;48.316;15.174;2022-12-18T00:07:49;5.17;;;3.23;;
4553;SDS011;2289;48.316;15.174;2022-12-18T00:10:18;3.80;;;2.50;;
4553;SDS011;2289;48.316;15.174;2022-12-18T00:12:47;4.53;;;3.30;;
4553;SDS011;2289;48.316;15.174;2022-12-18T00:15:16;5.60;;;3.47;;
4553;SDS011;2289;48.316;15.174;2022-12-18T00:17:44;8.00;;;3.90;;
4553;SDS011;2289;48.316;15.174;2022-12-18T00:20:13;6.67;;;4.07;;
4553;SDS011;2289;48.316;15.174;2022-12-18T00:22:43;5.33;;;3.37;;
4553;SDS011;2289;48.316;15.174;2022-12-18T00:25:12;5.37;;;3.93;;
4553;SDS011;2289;48.316;15.174;2022-12-18T00:31:16;4.47;;;4.07;;
4553;SDS011;2289;48.316;15.174;2022-12-18T00:33:47;5.60;;;3.63;;
4553;SDS011;2289;48.316;15.174;2022-12-18T00:36:20;4.53;;;3.90;;
4553;SDS011;2289;48.316;15.174;2022-12-18T00:38:52;6.40;;;4.27;;
4553;SDS011;2289;48.316;15.174;2022-12-18T00:41:22;6.07;;;4.00;;
4553;SDS011;2289;48.316;15.174;2022-12-18T00:44:09;5.90;;;3.63;;
4553;SDS011;2289;48.316;15.174;2022-12-18T00:46:38;5.77;;;3.53;;
4553;SDS011;2289;48.316;15.174;2022-12-18T00:49:06;5.37;;;3.87;;
4553;SDS011;2289;48.316;15.174;2022-12-18T00:51:35;10.93;;;4.53;;
4553;SDS011;2289;48.316;15.174;2022-12-18T00:54:05;7.90;;;3.60;;
4553;SDS011;2289;48.316;15.174;2022-12-18T00:56:35;6.37;;;4.43;;
4553;SDS011;2289;48.316;15.174;2022-12-18T00:59:14;7.87;;;4.40;;
4553;SDS011;2289;48.316;15.174;2022-12-18T01:01:43;12.47;;;5.63;;
4553;SDS011;2289;48.316;15.174;2022-12-18T01:04:12;9.77;;;5.70;;
4553;SDS011;2289;48.316;15.174;2022-12-18T01:06:41;9.50;;;4.77;;
4553;SDS011;2289;48.316;15.174;2022-12-18T01:09:12;9.67;;;5.00;;
4553;SDS011;2289;48.316;15.174;2022-12-18T01:11:41;7.40;;;3.40;;
4553;SDS011;2289;48.316;15.174;2022-12-18T01:14:09;7.97;;;4.53;;
4553;SDS011;2289;48.316;15.174;2022-12-18T01:16:38;8.43;;;3.77;;
4553;SDS011;2289;48.316;15.174;2022-12-18T01:19:07;8.83;;;4.10;;
4553;SDS011;2289;48.316;15.174;2022-12-18T01:21:35;5.80;;;4.60;;
4553;SDS011;2289;48.316;15.174;2022-12-18T01:24:04;5.67;;;3.57;;
4553;SDS011;2289;48.316;15.174;2022-12-18T01:26:35;5.30;;;3.90;;
4553;SDS011;2289;48.316;15.174;2022-12-18T01:29:07;5.77;;;3.83;;
4553;SDS011;2289;48.316;15.174;2022-12-18T01:31:36;7.43;;;4.73;;
4553;SDS011;2289;48.316;15.174;2022-12-18T01:34:05;7.93;;;5.60;;
4553;SDS011;2289;48.316;15.174;2022-12-18T01:36:34;6.17;;;4.03;;
4553;SDS011;2289;48.316;15.174;2022-12-18T01:39:06;4.77;;;4.10;;
4553;SDS011;2289;48.316;15.174;2022-12-18T01:41:37;7.10;;;4.47;;
4553;SDS011;2289;48.316;15.174;2022-12-18T01:47:23;4.47;;;4.07;;
4553;SDS011;2289;48.316;15.174;2022-12-18T01:49:55;8.10;;;4.43;;
4553;SDS011;2289;48.316;15.174;2022-12-18T01:52:24;7.80;;;4.40;;
4553;SDS011;2289;48.316;15.174;2022-12-18T01:54:57;8.10;;;5.50;;
4553;SDS011;2289;48.316;15.174;2022-12-18T01:57:28;9.17;;;6.17;;
4553;SDS011;2289;48.316;15.174;2022-12-18T01:59:59;14.67;;;5.83;;
4553;SDS011;2289;48.316;15.174;2022-12-18T02:02:29;10.13;;;6.07;;
4553;SDS011;2289;48.316;15.174;2022-12-18T02:04:58;10.93;;;6.93;;
4553;SDS011;2289;48.316;15.174;2022-12-18T02:07:29;7.13;;;5.57;;
4553;SDS011;2289;48.316;15.174;2022-12-18T02:10:03;7.93;;;5.10;;
4553;SDS011;2289;48.316;15.174;2022-12-18T02:12:39;6.97;;;4.57;;
4553;SDS011;2289;48.316;15.174;2022-12-18T02:15:13;7.97;;;5.50;;
4553;SDS011;2289;48.316;15.174;2022-12-18T02:17:45;11.83;;;5.37;;
4553;SDS011;2289;48.316;15.174;2022-12-18T02:20:17;6.60;;;4.40;;
4553;SDS011;2289;48.316;15.174;2022-12-18T02:22:53;7.40;;;5.10;;
4553;SDS011;2289;48.316;15.174;2022-12-18T02:26:01;5.00;;;3.80;;
4553;SDS011;2289;48.316;15.174;2022-12-18T02:28:35;7.70;;;4.93;;
4553;SDS011;2289;48.316;15.174;2022-12-18T02:31:10;5.33;;;3.47;;
4553;SDS011;2289;48.316;15.174;2022-12-18T02:33:40;7.17;;;3.50;;
4553;SDS011;2289;48.316;15.174;2022-12-18T02:36:11;7.50;;;3.80;;
4553;SDS011;2289;48.316;15.174;2022-12-18T02:38:41;9.27;;;3.47;;
4553;SDS011;2289;48.316;15.174;2022-12-18T02:41:12;11.77;;;4.93;;
4553;SDS011;2289;48.316;15.174;2022-12-18T02:43:42;6.93;;;4.37;;
4553;SDS011;2289;48.316;15.174;2022-12-18T02:46:24;6.67;;;4.43;;
4553;SDS011;2289;48.316;15.174;2022-12-18T02:48:57;4.77;;;3.73;;
4553;SDS011;2289;48.316;15.174;2022-12-18T02:51:32;7.53;;;4.00;;
4553;SDS011;2289;48.316;15.174;2022-12-18T02:54:06;6.90;;;3.80;;
4553;SDS011;2289;48.316;15.174;2022-12-18T02:56:40;4.80;;;3.50;;
4553;SDS011;2289;48.316;15.174;2022-12-18T02:59:15;5.00;;;3.03;;
4553;SDS011;2289;48.316;15.174;2022-12-18T03:04:58;4.00;;;2.97;;
4553;SDS011;2289;48.316;15.174;2022-12-18T03:07:33;4.70;;;3.10;;
4553;SDS011;2289;48.316;15.174;2022-12-18T03:10:06;3.77;;;3.23;;
4553;SDS011;2289;48.316;15.174;2022-12-18T03:12:37;6.67;;;3.70;;
4553;SDS011;2289;48.316;15.174;2022-12-18T03:15:09;5.90;;;3.37;;
4553;SDS011;2289;48.316;15.174;2022-12-18T03:17:44;3.63;;;2.97;;
4553;SDS011;2289;48.316;15.174;2022-12-18T03:20:24;4.70;;;3.07;;
4553;SDS011;2289;48.316;15.174;2022-12-18T03:22:57;4.20;;;3.20;;
4553;SDS011;2289;48.316;15.174;2022-12-18T03:25:29;5.23;;;4.00;;
4553;SDS011;2289;48.316;15.174;2022-12-18T03:28:00;6.53;;;3.60;;
4553;SDS011;2289;48.316;15.174;2022-12-18T03:30:31;6.10;;;3.60;;
4553;SDS011;2289;48.316;15.174;2022-12-18T03:33:04;4.33;;;3.33;;
4553;SDS011;2289;48.316;15.174;2022-12-18T03:35:35;3.40;;;2.60;;
4553;SDS011;2289;48.316;15.174;2022-12-18T03:38:06;4.17;;;3.13;;
4553;SDS011;2289;48.316;15.174;2022-12-18T03:40:35;5.53;;;2.80;;
4553;SDS011;2289;48.316;15.174;2022-12-18T03:43:14;3.43;;;2.63;;
4553;SDS011;2289;48.316;15.174;2022-12-18T03:45:48;4.30;;;2.90;;
4553;SDS011;2289;48.316;15.174;2022-12-18T03:48:23;4.77;;;3.43;;
4553;SDS011;2289;48.316;15.174;2022-12-18T03:50:56;5.00;;;2.73;;
4553;SDS011;2289;48.316;15.174;2022-12-18T03:53:28;4.70;;;2.73;;
4553;SDS011;2289;48.316;15.174;2022-12-18T03:56:02;7.43;;;3.70;;
4553;SDS011;2289;48.316;15.174;2022-12-18T03:58:34;5.17;;;3.00;;
4553;SDS011;2289;48.316;15.174;2022-12-18T04:01:04;6.07;;;3.57;;
4553;SDS011;2289;48.316;15.174;2022-12-18T04:03:33;6.63;;;3.47;;
4553;SDS011;2289;48.316;15.174;2022-12-18T04:06:04;2.83;;;2.30;;
4553;SDS011;2289;48.316;15.174;2022-12-18T04:08:33;4.13;;;3.30;;
4553;SDS011;2289;48.316;15.174;2022-12-18T04:11:02;3.27;;;2.63;;
4553;SDS011;2289;48.316;15.174;2022-12-18T04:13:32;4.20;;;2.80;;
4553;SDS011;2289;48.316;15.174;2022-12-18T04:16:11;4.43;;;2.70;;
4553;SDS011;2289;48.316;15.174;2022-12-18T04:18:40;4.10;;;3.03;;
4553;SDS011;2289;48.316;15.174;2022-12-18T04:21:09;5.93;;;3.13;;
4553;SDS011;2289;48.316;15.174;2022-12-18T04:23:38;3.13;;;2.47;;
4553;SDS011;2289;48.316;15.174;2022-12-18T04:26:07;5.90;;;2.60;;
4553;SDS011;2289;48.316;15.174;2022-12-18T04:28:37;3.13;;;2.70;;
4553;SDS011;2289;48.316;15.174;2022-12-18T04:31:05;4.30;;;2.73;;
4553;SDS011;2289;48.316;15.174;2022-12-18T04:37:02;3.97;;;2.53;;
4553;SDS011;2289;48.316;15.174;2022-12-18T04:39:31;4.73;;;2.57;;
4553;SDS011;2289;48.316;15.174;2022-12-18T04:44:54;6.67;;;3.30;;
4553;SDS011;2289;48.316;15.174;2022-12-18T04:47:22;6.57;;;3.07;;
4553;SDS011;2289;48.316;15.174;2022-12-18T04:49:51;4.20;;;2.60;;
4553;SDS011;2289;48.316;15.174;2022-12-18T04:52:19;4.43;;;2.23;;
4553;SDS011;2289;48.316;15.174;2022-12-18T04:54:54;3.27;;;2.50;;
4553;SDS011;2289;48.316;15.174;2022-12-18T04:57:23;2.20;;;1.97;;
4553;SDS011;2289;48.316;15.174;2022-12-18T05:00:00;2.80;;;2.40;;
4553;SDS011;2289;48.316;15.174;2022-12-18T05:02:28;2.63;;;2.43;;
4553;SDS011;2289;48.316;15.174;2022-12-18T05:08:30;4.20;;;3.30;;
4553;SDS011;2289;48.316;15.174;2022-12-18T05:10:59;2.20;;;2.00;;
4553;SDS011;2289;48.316;15.174;2022-12-18T05:13:28;2.60;;;2.10;;
4553;SDS011;2289;48.316;15.174;2022-12-18T05:15:58;6.23;;;2.27;;
4553;SDS011;2289;48.316;15.174;2022-12-18T05:18:27;4.43;;;2.20;;
4553;SDS011;2289;48.316;15.174;2022-12-18T05:20:56;4.00;;;2.23;;
4553;SDS011;2289;48.316;15.174;2022-12-18T05:23:25;2.53;;;2.30;;
4553;SDS011;2289;48.316;15.174;2022-12-18T05:25:54;4.50;;;2.40;;
4553;SDS011;2289;48.316;15.174;2022-12-18T05:28:24;3.50;;;2.70;;
4553;SDS011;2289;48.316;15.174;2022-12-18T05:30:54;8.83;;;2.20;;
4553;SDS011;2289;48.316;15.174;2022-12-18T05:33:25;2.70;;;2.40;;
4553;SDS011;2289;48.316;15.174;2022-12-18T05:35:55;4.80;;;2.33;;
4553;SDS011;2289;48.316;15.174;2022-12-18T05:38:25;4.80;;;2.90;;
4553;SDS011;2289;48.316;15.174;2022-12-18T05:40:54;4.10;;;2.80;;
4553;SDS011;2289;48.316;15.174;2022-12-18T05:43:24;4.00;;;3.20;;
4553;SDS011;2289;48.316;15.174;2022-12-18T05:45:53;3.70;;;2.53;;
4553;SDS011;2289;48.316;15.174;2022-12-18T05:48:22;3.60;;;3.07;;
4553;SDS011;2289;48.316;15.174;2022-12-18T05:50:53;3.20;;;2.97;;
4553;SDS011;2289;48.316;15.174;2022-12-18T05:53:21;4.43;;;2.83;;
4553;SDS011;2289;48.316;15.174;2022-12-18T05:55:52;8.63;;;3.63;;
4553;SDS011;2289;48.316;15.174;2022-12-18T05:58:21;4.13;;;2.90;;
4553;SDS011;2289;48.316;15.174;2022-12-18T06:00:50;8.20;;;3.33;;
4553;SDS011;2289;48.316;15.174;2022-12-18T06:03:19;2.70;;;2.40;;
4553;SDS011;2289;48.316;15.174;2022-12-18T06:05:48;3.10;;;2.80;;
4553;SDS011;2289;48.316;15.174;2022-12-18T06:08:18;3.87;;;3.03;;
4553;SDS011;2289;48.316;15.174;2022-12-18T06:10:49;8.50;;;3.23;;
4553;SDS011;2289;48.316;15.174;2022-12-18T06:13:19;4.10;;;3.00;;
4553;SDS011;2289;48.316;15.174;2022-12-18T06:15:48;5.17;;;2.63;;
4553;SDS011;2289;48.316;15.174;2022-12-18T06:18:17;6.53;;;4.20;;
4553;SDS011;2289;48.316;15.174;2022-12-18T06:20:45;3.47;;;2.40;;
4553;SDS011;2289;48.316;15.174;2022-12-18T06:23:21;4.43;;;2.83;;
4553;SDS011;2289;48.316;15.174;2022-12-18T06:25:50;5.13;;;2.53;;
4553;SDS011;2289;48.316;15.174;2022-12-18T06:28:19;3.87;;;3.20;;
4553;SDS011;2289;48.316;15.174;2022-12-18T06:30:47;3.37;;;3.07;;
4553;SDS011;2289;48.316;15.174;2022-12-18T06:33:16;2.33;;;2.13;;
4553;SDS011;2289;48.316;15.174;2022-12-18T06:35:45;4.57;;;2.60;;
4553;SDS011;2289;48.316;15.174;2022-12-18T06:38:14;3.53;;;2.37;;
4553;SDS011;2289;48.316;15.174;2022-12-18T06:40:44;4.20;;;3.10;;
4553;SDS011;2289;48.316;15.174;2022-12-18T06:43:12;4.23;;;3.07;;
4553;SDS011;2289;48.316;15.174;2022-12-18T06:45:42;3.70;;;2.40;;
4553;SDS011;2289;48.316;15.174;2022-12-18T06:48:11;6.00;;;2.63;;
4553;SDS011;2289;48.316;15.174;2022-12-18T06:50:41;2.87;;;2.50;;
4553;SDS011;2289;48.316;15.174;2022-12-18T06:53:12;3.10;;;2.70;;
4553;SDS011;2289;48.316;15.174;2022-12-18T06:55:40;3.87;;;3.40;;
4553;SDS011;2289;48.316;15.174;2022-12-18T06:58:10;4.30;;;3.93;;
4553;SDS011;2289;48.316;15.174;2022-12-18T07:00:39;3.53;;;2.97;;
4553;SDS011;2289;48.316;15.174;2022-12-18T07:03:12;4.80;;;3.73;;
4553;SDS011;2289;48.316;15.174;2022-12-18T07:05:41;6.00;;;4.17;;
4553;SDS011;2289;48.316;15.174;2022-12-18T07:08:09;7.00;;;3.30;;
4553;SDS011;2289;48.316;15.174;2022-12-18T07:10:40;2.80;;;2.57;;
4553;SDS011;2289;48.316;15.174;2022-12-18T07:13:15;6.17;;;3.00;;
4553;SDS011;2289;48.316;15.174;2022-12-18T07:15:44;5.27;;;3.30;;
4553;SDS011;2289;48.316;15.174;2022-12-18T07:18:12;3.43;;;2.37;;
4553;SDS011;2289;48.316;15.174;2022-12-18T07:20:41;5.80;;;4.47;;
4553;SDS011;2289;48.316;15.174;2022-12-18T07:23:11;3.77;;;3.03;;
4553;SDS011;2289;48.316;15.174;2022-12-18T07:25:41;6.37;;;3.57;;
4553;SDS011;2289;48.316;15.174;2022-12-18T07:28:10;5.67;;;2.90;;
4553;SDS011;2289;48.316;15.174;2022-12-18T07:30:44;5.60;;;3.60;;
4553;SDS011;2289;48.316;15.174;2022-12-18T07:33:13;4.30;;;2.90;;
4553;SDS011;2289;48.316;15.174;2022-12-18T07:35:41;4.40;;;3.10;;
4553;SDS011;2289;48.316;15.174;2022-12-18T07:38:12;6.00;;;3.70;;
4553;SDS011;2289;48.316;15.174;2022-12-18T07:40:40;3.00;;;2.67;;
4553;SDS011;2289;48.316;15.174;2022-12-18T07:43:09;4.33;;;2.63;;
4553;SDS011;2289;48.316;15.174;2022-12-18T07:45:38;4.43;;;2.77;;
4553;SDS011;2289;48.316;15.174;2022-12-18T07:48:08;5.80;;;3.43;;
4553;SDS011;2289;48.316;15.174;2022-12-18T07:50:37;4.80;;;2.63;;
4553;SDS011;2289;48.316;15.174;2022-12-18T07:56:37;9.43;;;4.17;;
4553;SDS011;2289;48.316;15.174;2022-12-18T07:59:06;4.70;;;4.07;;
4553;SDS011;2289;48.316;15.174;2022-12-18T08:01:34;6.03;;;4.20;;
4553;SDS011;2289;48.316;15.174;2022-12-18T08:07:36;9.93;;;5.37;;
4553;SDS011;2289;48.316;15.174;2022-12-18T08:10:05;8.23;;;5.67;;
4553;SDS011;2289;48.316;15.174;2022-12-18T08:12:34;15.70;;;10.10;;
4553;SDS011;2289;48.316;15.174;2022-12-18T08:15:03;10.67;;;6.60;;
4553;SDS011;2289;48.316;15.174;2022-12-18T08:17:32;11.33;;;6.40;;
4553;SDS011;2289;48.316;15.174;2022-12-18T08:20:01;8.27;;;5.63;;
4553;SDS011;2289;48.316;15.174;2022-12-18T08:22:33;7.67;;;5.77;;
4553;SDS011;2289;48.316;15.174;2022-12-18T08:25:03;8.20;;;6.23;;
4553;SDS011;2289;48.316;15.174;2022-12-18T08:27:32;10.03;;;5.30;;
4553;SDS011;2289;48.316;15.174;2022-12-18T08:30:01;7.37;;;5.87;;
4553;SDS011;2289;48.316;15.174;2022-12-18T08:32:32;13.27;;;6.90;;
4553;SDS011;2289;48.316;15.174;2022-12-18T08:35:01;9.83;;;7.33;;
4553;SDS011;2289;48.316;15.174;2022-12-18T08:37:29;11.47;;;7.20;;
4553;SDS011;2289;48.316;15.174;2022-12-18T08:39:58;23.50;;;12.60;;
4553;SDS011;2289;48.316;15.174;2022-12-18T08:42:28;18.00;;;11.03;;
4553;SDS011;2289;48.316;15.174;2022-12-18T08:45:26;27.77;;;19.00;;
4553;SDS011;2289;48.316;15.174;2022-12-18T08:47:55;33.30;;;20.90;;
4553;SDS011;2289;48.316;15.174;2022-12-18T08:50:24;27.10;;;18.23;;
4553;SDS011;2289;48.316;15.174;2022-12-18T08:52:52;59.13;;;48.33;;
4553;SDS011;2289;48.316;15.174;2022-12-18T08:55:20;35.50;;;24.17;;
4553;SDS011;2289;48.316;15.174;2022-12-18T08:57:50;24.03;;;19.80;;
4553;SDS011;2289;48.316;15.174;2022-12-18T09:00:19;27.53;;;18.13;;
4553;SDS011;2289;48.316;15.174;2022-12-18T09:02:48;23.87;;;17.07;;
4553;SDS011;2289;48.316;15.174;2022-12-18T09:05:16;28.30;;;18.57;;
4553;SDS011;2289;48.316;15.174;2022-12-18T09:07:45;27.77;;;20.00;;
4553;SDS011;2289;48.316;15.174;2022-12-18T09:10:15;24.97;;;17.20;;
4553;SDS011;2289;48.316;15.174;2022-12-18T09:12:59;34.37;;;19.07;;
4553;SDS011;2289;48.316;15.174;2022-12-18T09:15:28;27.10;;;17.40;;
4553;SDS011;2289;48.316;15.174;2022-12-18T09:17:57;28.07;;;17.30;;
4553;SDS011;2289;48.316;15.174;2022-12-18T09:20:25;27.83;;;15.17;;
4553;SDS011;2289;48.316;15.174;2022-12-18T09:22:56;59.53;;;35.27;;
4553;SDS011;2289;48.316;15.174;2022-12-18T09:25:25;65.37;;;39.07;;
4553;SDS011;2289;48.316;15.174;2022-12-18T09:28:00;35.50;;;25.23;;
4553;SDS011;2289;48.316;15.174;2022-12-18T09:30:28;50.57;;;34.10;;
4553;SDS011;2289;48.316;15.174;2022-12-18T09:33:01;36.43;;;24.20;;
4553;SDS011;2289;48.316;15.174;2022-12-18T09:35:32;38.73;;;26.13;;
4553;SDS011;2289;48.316;15.174;2022-12-18T09:38:01;26.10;;;19.93;;
4553;SDS011;2289;48.316;15.174;2022-12-18T09:40:34;25.43;;;18.00;;
4553;SDS011;2289;48.316;15.174;2022-12-18T09:43:06;23.13;;;15.40;;
4553;SDS011;2289;48.316;15.174;2022-12-18T09:45:38;16.43;;;11.20;;
4553;SDS011;2289;48.316;15.174;2022-12-18T09:48:09;21.50;;;16.33;;
4553;SDS011;2289;48.316;15.174;2022-12-18T09:50:39;19.63;;;12.30;;
4553;SDS011;2289;48.316;15.174;2022-12-18T09:53:09;14.00;;;11.80;;
4553;SDS011;2289;48.316;15.174;2022-12-18T09:55:43;15.73;;;12.93;;
4553;SDS011;2289;48.316;15.174;2022-12-18T09:58:15;18.03;;;13.83;;
4553;SDS011;2289;48.316;15.174;2022-12-18T10:00:47;15.93;;;14.17;;
4553;SDS011;2289;48.316;15.174;2022-12-18T10:03:16;12.83;;;10.20;;
4553;SDS011;2289;48.316;15.174;2022-12-18T10:05:47;12.00;;;9.97;;
4553;SDS011;2289;48.316;15.174;2022-12-18T10:08:24;11.13;;;9.27;;
4553;SDS011;2289;48.316;15.174;2022-12-18T10:11:00;12.43;;;10.30;;
4553;SDS011;2289;48.316;15.174;2022-12-18T10:13:33;13.63;;;10.63;;
4553;SDS011;2289;48.316;15.174;2022-12-18T10:16:12;16.13;;;12.20;;
4553;SDS011;2289;48.316;15.174;2022-12-18T10:18:50;13.53;;;11.70;;
4553;SDS011;2289;48.316;15.174;2022-12-18T10:21:31;15.97;;;11.90;;
4553;SDS011;2289;48.316;15.174;2022-12-18T10:24:02;14.40;;;10.60;;
4553;SDS011;2289;48.316;15.174;2022-12-18T10:26:37;16.17;;;12.43;;
4553;SDS011;2289;48.316;15.174;2022-12-18T10:29:09;14.17;;;12.47;;
4553;SDS011;2289;48.316;15.174;2022-12-18T10:31:39;17.50;;;12.53;;
4553;SDS011;2289;48.316;15.174;2022-12-18T10:34:09;17.93;;;14.70;;
4553;SDS011;2289;48.316;15.174;2022-12-18T10:36:38;15.53;;;11.90;;
4553;SDS011;2289;48.316;15.174;2022-12-18T10:39:16;15.30;;;12.07;;
4553;SDS011;2289;48.316;15.174;2022-12-18T10:41:46;15.67;;;11.20;;
4553;SDS011;2289;48.316;15.174;2022-12-18T10:44:18;15.30;;;11.40;;
4553;SDS011;2289;48.316;15.174;2022-12-18T10:46:48;15.13;;;11.50;;
4553;SDS011;2289;48.316;15.174;2022-12-18T10:49:25;14.67;;;10.97;;
4553;SDS011;2289;48.316;15.174;2022-12-18T10:52:04;12.20;;;10.90;;
4553;SDS011;2289;48.316;15.174;2022-12-18T10:54:34;16.47;;;11.87;;
4553;SDS011;2289;48.316;15.174;2022-12-18T10:57:16;18.53;;;12.37;;
4553;SDS011;2289;48.316;15.174;2022-12-18T10:59:53;13.80;;;9.90;;
4553;SDS011;2289;48.316;15.174;2022-12-18T11:02:26;16.03;;;10.47;;
4553;SDS011;2289;48.316;15.174;2022-12-18T11:04:57;14.40;;;11.40;;
4553;SDS011;2289;48.316;15.174;2022-12-18T11:07:26;15.47;;;10.50;;
4553;SDS011;2289;48.316;15.174;2022-12-18T11:10:16;29.37;;;26.53;;
4553;SDS011;2289;48.316;15.174;2022-12-18T11:16:36;17.17;;;12.50;;
4553;SDS011;2289;48.316;15.174;2022-12-18T11:19:35;14.73;;;12.30;;
4553;SDS011;2289;48.316;15.174;2022-12-18T11:22:17;15.97;;;11.90;;
4553;SDS011;2289;48.316;15.174;2022-12-18T11:24:52;17.40;;;12.27;;
4553;SDS011;2289;48.316;15.174;2022-12-18T11:27:47;16.20;;;11.80;;
4553;SDS011;2289;48.316;15.174;2022-12-18T11:30:21;21.13;;;14.43;;
4553;SDS011;2289;48.316;15.174;2022-12-18T11:32:52;22.70;;;16.10;;
4553;SDS011;2289;48.316;15.174;2022-12-18T11:35:27;19.33;;;12.87;;
4553;SDS011;2289;48.316;15.174;2022-12-18T11:38:12;17.70;;;13.07;;
4553;SDS011;2289;48.316;15.174;2022-12-18T11:40:47;28.27;;;14.93;;
4553;SDS011;2289;48.316;15.174;2022-12-18T11:43:21;38.33;;;26.20;;
4553;SDS011;2289;48.316;15.174;2022-12-18T11:45:56;24.43;;;19.07;;
4553;SDS011;2289;48.316;15.174;2022-12-18T11:48:34;38.93;;;25.97;;
4553;SDS011;2289;48.316;15.174;2022-12-18T11:51:09;23.67;;;16.20;;
4553;SDS011;2289;48.316;15.174;2022-12-18T11:53:41;16.93;;;13.80;;
4553;SDS011;2289;48.316;15.174;2022-12-18T11:56:16;15.63;;;13.67;;
4553;SDS011;2289;48.316;15.174;2022-12-18T11:58:56;18.50;;;14.53;;
4553;SDS011;2289;48.316;15.174;2022-12-18T12:01:31;21.20;;;15.03;;
4553;SDS011;2289;48.316;15.174;2022-12-18T12:04:26;19.43;;;13.60;;
4553;SDS011;2289;48.316;15.174;2022-12-18T12:07:05;18.50;;;14.80;;
4553;SDS011;2289;48.316;15.174;2022-12-18T12:09:45;17.30;;;13.57;;
4553;SDS011;2289;48.316;15.174;2022-12-18T12:12:21;19.13;;;15.43;;
4553;SDS011;2289;48.316;15.174;2022-12-18T12:14:57;20.40;;;15.30;;
4553;SDS011;2289;48.316;15.174;2022-12-18T12:17:32;19.73;;;15.33;;
4553;SDS011;2289;48.316;15.174;2022-12-18T12:20:08;21.10;;;15.17;;
4553;SDS011;2289;48.316;15.174;2022-12-18T12:22:43;18.30;;;14.17;;
4553;SDS011;2289;48.316;15.174;2022-12-18T12:25:21;15.80;;;13.40;;
4553;SDS011;2289;48.316;15.174;2022-12-18T12:28:00;18.53;;;15.00;;
4553;SDS011;2289;48.316;15.174;2022-12-18T12:30:40;17.20;;;12.70;;
4553;SDS011;2289;48.316;15.174;2022-12-18T12:33:20;15.73;;;11.50;;
4553;SDS011;2289;48.316;15.174;2022-12-18T12:36:03;17.43;;;11.93;;
4553;SDS011;2289;48.316;15.174;2022-12-18T12:38:37;15.70;;;12.23;;
4553;SDS011;2289;48.316;15.174;2022-12-18T12:41:17;17.60;;;13.73;;
4553;SDS011;2289;48.316;15.174;2022-12-18T12:44:05;22.10;;;15.20;;
4553;SDS011;2289;48.316;15.174;2022-12-18T12:46:37;18.70;;;14.83;;
4553;SDS011;2289;48.316;15.174;2022-12-18T12:49:09;18.07;;;14.90;;
4553;SDS011;2289;48.316;15.174;2022-12-18T12:51:43;21.60;;;15.70;;
4553;SDS011;2289;48.316;15.174;2022-12-18T12:54:15;19.87;;;14.93;;
4553;SDS011;2289;48.316;15.174;2022-12-18T12:56:49;23.10;;;15.67;;
4553;SDS011;2289;48.316;15.174;2022-12-18T12:59:24;16.60;;;13.37;;
4553;SDS011;2289;48.316;15.174;2022-12-18T13:01:59;21.50;;;15.03;;
4553;SDS011;2289;48.316;15.174;2022-12-18T13:04:34;14.40;;;12.37;;
4553;SDS011;2289;48.316;15.174;2022-12-18T13:07:10;19.87;;;14.50;;
4553;SDS011;2289;48.316;15.174;2022-12-18T13:12:51;21.57;;;14.87;;
4553;SDS011;2289;48.316;15.174;2022-12-18T13:15:25;19.43;;;13.20;;
4553;SDS011;2289;48.316;15.174;2022-12-18T13:18:05;21.93;;;15.47;;
4553;SDS011;2289;48.316;15.174;2022-12-18T13:20:41;26.30;;;15.87;;
4553;SDS011;2289;48.316;15.174;2022-12-18T13:23:29;20.70;;;14.60;;
4553;SDS011;2289;48.316;15.174;2022-12-18T13:26:00;16.23;;;13.13;;
4553;SDS011;2289;48.316;15.174;2022-12-18T13:29:00;18.97;;;13.77;;
4553;SDS011;2289;48.316;15.174;2022-12-18T13:34:42;22.57;;;14.13;;
4553;SDS011;2289;48.316;15.174;2022-12-18T13:43:34;20.87;;;13.20;;
4553;SDS011;2289;48.316;15.174;2022-12-18T13:48:52;20.77;;;16.03;;
4553;SDS011;2289;48.316;15.174;2022-12-18T13:51:24;18.73;;;13.70;;
4553;SDS011;2289;48.316;15.174;2022-12-18T13:53:54;22.00;;;14.30;;
4553;SDS011;2289;48.316;15.174;2022-12-18T13:56:25;21.80;;;15.07;;
4553;SDS011;2289;48.316;15.174;2022-12-18T14:01:52;19.47;;;13.13;;
4553;SDS011;2289;48.316;15.174;2022-12-18T14:04:24;25.77;;;15.80;;
4553;SDS011;2289;48.316;15.174;2022-12-18T14:06:57;22.20;;;15.60;;
4553;SDS011;2289;48.316;15.174;2022-12-18T14:09:30;21.00;;;13.83;;
4553;SDS011;2289;48.316;15.174;2022-12-18T14:12:00;25.27;;;15.80;;
4553;SDS011;2289;48.316;15.174;2022-12-18T14:14:48;27.10;;;14.87;;
4553;SDS011;2289;48.316;15.174;2022-12-18T14:17:20;22.00;;;14.73;;
4553;SDS011;2289;48.316;15.174;2022-12-18T14:19:49;19.70;;;13.80;;
4553;SDS011;2289;48.316;15.174;2022-12-18T14:22:19;19.07;;;12.90;;
4553;SDS011;2289;48.316;15.174;2022-12-18T14:25:04;21.30;;;13.30;;
4553;SDS011;2289;48.316;15.174;2022-12-18T14:27:41;22.07;;;12.77;;
4553;SDS011;2289;48.316;15.174;2022-12-18T14:30:28;23.07;;;15.33;;
4553;SDS011;2289;48.316;15.174;2022-12-18T14:33:01;28.47;;;15.40;;
4553;SDS011;2289;48.316;15.174;2022-12-18T14:35:35;27.27;;;14.70;;
4553;SDS011;2289;48.316;15.174;2022-12-18T14:38:10;20.77;;;12.60;;
4553;SDS011;2289;48.316;15.174;2022-12-18T14:40:53;21.67;;;14.20;;
4553;SDS011;2289;48.316;15.174;2022-12-18T14:43:23;19.03;;;12.07;;
4553;SDS011;2289;48.316;15.174;2022-12-18T14:45:54;20.67;;;12.33;;
4553;SDS011;2289;48.316;15.174;2022-12-18T14:48:30;22.30;;;12.53;;
4553;SDS011;2289;48.316;15.174;2022-12-18T14:51:06;21.57;;;13.27;;
4553;SDS011;2289;48.316;15.174;2022-12-18T14:53:45;18.90;;;12.30;;
4553;SDS011;2289;48.316;15.174;2022-12-18T14:56:21;21.43;;;12.00;;
4553;SDS011;2289;48.316;15.174;2022-12-18T14:58:51;22.93;;;12.07;;
4553;SDS011;2289;48.316;15.174;2022-12-18T15:01:25;20.90;;;12.70;;
4553;SDS011;2289;48.316;15.174;2022-12-18T15:03:56;21.23;;;14.07;;
4553;SDS011;2289;48.316;15.174;2022-12-18T15:06:28;23.37;;;14.37;;
4553;SDS011;2289;48.316;15.174;2022-12-18T15:08:59;23.40;;;14.53;;
4553;SDS011;2289;48.316;15.174;2022-12-18T15:11:33;26.33;;;14.03;;
4553;SDS011;2289;48.316;15.174;2022-12-18T15:16:54;20.23;;;13.67;;
4553;SDS011;2289;48.316;15.174;2022-12-18T15:19:31;27.10;;;14.57;;
4553;SDS011;2289;48.316;15.174;2022-12-18T15:22:03;22.87;;;13.60;;
4553;SDS011;2289;48.316;15.174;2022-12-18T15:24:32;17.73;;;12.30;;
4553;SDS011;2289;48.316;15.174;2022-12-18T15:27:01;22.83;;;12.67;;
4553;SDS011;2289;48.316;15.174;2022-12-18T15:29:32;31.77;;;17.27;;
4553;SDS011;2289;48.316;15.174;2022-12-18T15:32:03;29.40;;;16.90;;
4553;SDS011;2289;48.316;15.174;2022-12-18T15:34:33;30.87;;;15.77;;
4553;SDS011;2289;48.316;15.174;2022-12-18T15:37:02;27.93;;;15.87;;
4553;SDS011;2289;48.316;15.174;2022-12-18T15:39:31;27.03;;;16.43;;
4553;SDS011;2289;48.316;15.174;2022-12-18T15:42:00;27.80;;;16.00;;
4553;SDS011;2289;48.316;15.174;2022-12-18T15:44:46;23.73;;;15.60;;
4553;SDS011;2289;48.316;15.174;2022-12-18T15:47:17;35.03;;;17.60;;
4553;SDS011;2289;48.316;15.174;2022-12-18T15:49:45;49.03;;;24.90;;
4553;SDS011;2289;48.316;15.174;2022-12-18T15:52:14;41.50;;;19.90;;
4553;SDS011;2289;48.316;15.174;2022-12-18T15:54:55;33.67;;;17.40;;
4553;SDS011;2289;48.316;15.174;2022-12-18T15:58:02;21.10;;;11.07;;
4553;SDS011;2289;48.316;15.174;2022-12-18T16:00:31;17.00;;;10.40;;
4553;SDS011;2289;48.316;15.174;2022-12-18T16:03:05;23.30;;;11.67;;
4553;SDS011;2289;48.316;15.174;2022-12-18T16:05:35;18.90;;;11.53;;
4553;SDS011;2289;48.316;15.174;2022-12-18T16:08:06;18.70;;;9.47;;
4553;SDS011;2289;48.316;15.174;2022-12-18T16:10:34;20.10;;;11.40;;